createdAt,value
2018-01-12T00:00:17.636Z,99.2
2018-01-12T00:01:18.401Z,98.8
2018-01-12T00:02:19.132Z,95.6
2018-01-12T00:03:19.851Z,102.0
2018-01-12T00:04:20.569Z,96.5
2018-01-12T00:05:21.304Z,96.1
2018-01-12T00:06:22.012Z,105.5
2018-01-12T00:07:22.797Z,107.4
2018-01-12T00:08:23.557Z,100.4
2018-01-12T00:09:24.288Z,100.7
2018-01-12T00:10:25.008Z,99.1
2018-01-12T00:11:25.753Z,100.9
2018-01-12T00:12:26.424Z,95.7
2018-01-12T00:13:27.160Z,99.7
2018-01-12T00:14:27.957Z,96.4
2018-01-12T00:15:28.694Z,97.5
2018-01-12T00:16:29.422Z,98.7
2018-01-12T00:17:30.152Z,101.3
2018-01-12T00:18:30.863Z,99.4
2018-01-12T00:19:31.591Z,98.7
2018-01-12T00:20:32.319Z,101.4
2018-01-12T00:22:47.308Z,97.3
2018-01-12T00:23:48.342Z,100.1
2018-01-12T00:24:49.078Z,99.6
2018-01-12T00:25:49.817Z,101.5
2018-01-12T00:26:50.594Z,106.8
2018-01-12T00:27:51.312Z,105.3
2018-01-12T00:28:52.039Z,105.8
2018-01-12T00:29:52.767Z,101.1
2018-01-12T00:30:53.488Z,97.2
2018-01-12T00:31:54.207Z,92.1
2018-01-12T00:32:54.932Z,88.7
2018-01-12T00:33:55.974Z,85.2
2018-01-12T00:34:56.758Z,82.8
2018-01-12T00:35:57.432Z,80.3
2018-01-12T00:36:58.148Z,79.2
2018-01-12T00:37:58.888Z,82.5
2018-01-12T00:38:59.692Z,79.0
2018-01-12T00:40:01.394Z,88.9
2018-01-12T00:41:02.112Z,79.5
2018-01-12T00:42:02.870Z,85.7
2018-01-12T00:43:03.985Z,82.1
2018-01-12T00:44:04.702Z,84.9
2018-01-12T00:45:05.486Z,88.8
2018-01-12T00:46:06.213Z,88.4
2018-01-12T00:47:06.992Z,88.3
2018-01-12T00:48:07.717Z,85.6
2018-01-12T00:49:08.439Z,92.7
2018-01-12T00:50:09.251Z,98.5
2018-01-12T00:51:09.986Z,103.1
2018-01-12T00:52:10.829Z,106.4
2018-01-12T00:53:11.538Z,88.3
2018-01-12T00:54:12.350Z,84.5
2018-01-12T00:55:13.139Z,87.7
2018-01-12T00:56:13.871Z,87.9
2018-01-12T00:57:14.601Z,83.5
2018-01-12T00:58:15.321Z,82.5
2018-01-12T00:59:16.077Z,81.8
2018-01-12T01:00:16.807Z,79.1
2018-01-12T01:01:17.588Z,83.5
2018-01-12T01:02:18.333Z,91.7
2018-01-12T01:03:19.062Z,84.2
2018-01-12T01:04:19.845Z,81.6
2018-01-12T01:05:20.627Z,82.4
2018-01-12T01:06:21.292Z,87.9
2018-01-12T01:07:22.019Z,88.5
2018-01-12T01:08:22.742Z,86.7
2018-01-12T01:09:23.792Z,86.9
2018-01-12T01:10:24.501Z,93.0
2018-01-12T01:11:25.300Z,90.2
2018-01-12T01:12:26.018Z,88.9
2018-01-12T01:13:26.735Z,91.0
2018-01-12T01:14:27.461Z,96.6
2018-01-12T01:15:28.281Z,89.2
2018-01-12T01:16:29.012Z,88.1
2018-01-12T01:17:29.790Z,81.6
2018-01-12T01:18:30.578Z,83.6
2018-01-12T01:19:31.411Z,79.9
2018-01-12T01:20:32.140Z,81.5
2018-01-12T01:21:32.882Z,87.6
2018-01-12T01:22:33.670Z,87.8
2018-01-12T01:23:34.393Z,83.5
2018-01-12T01:24:35.137Z,87.5
2018-01-12T01:25:35.881Z,91.0
2018-01-12T01:26:36.898Z,87.4
2018-01-12T01:27:37.619Z,89.0
2018-01-12T01:28:38.418Z,94.3
2018-01-12T01:29:39.226Z,85.3
2018-01-12T01:30:39.989Z,91.8
2018-01-12T01:31:40.723Z,94.4
2018-01-12T01:32:41.446Z,91.6
2018-01-12T01:33:42.171Z,92.4
2018-01-12T01:34:42.892Z,91.2
2018-01-12T01:35:43.629Z,87.6
2018-01-12T01:36:44.350Z,87.4
2018-01-12T01:37:45.080Z,91.8
2018-01-12T01:38:46.096Z,87.3
2018-01-12T01:39:46.817Z,89.5
2018-01-12T01:40:47.542Z,86.2
2018-01-12T01:41:48.358Z,91.1
2018-01-12T01:42:49.084Z,87.0
2018-01-12T01:43:49.865Z,83.6
2018-01-12T01:44:50.587Z,83.5
2018-01-12T01:45:51.312Z,85.9
2018-01-12T01:46:52.046Z,83.5
2018-01-12T01:47:52.833Z,76.0
2018-01-12T01:48:53.563Z,83.6
2018-01-12T01:49:54.338Z,85.0
2018-01-12T01:50:55.062Z,85.8
2018-01-12T01:51:55.794Z,82.0
2018-01-12T01:52:56.533Z,81.9
2018-01-12T01:53:57.312Z,85.9
2018-01-12T01:54:58.028Z,84.6
2018-01-12T01:55:58.753Z,86.1
2018-01-12T01:56:59.472Z,80.4
2018-01-12T01:58:00.200Z,84.1
2018-01-12T01:59:00.931Z,88.3
2018-01-12T02:00:01.973Z,86.4
2018-01-12T02:01:02.791Z,88.5
2018-01-12T02:02:03.515Z,85.4
2018-01-12T02:03:04.234Z,87.4
2018-01-12T02:04:04.964Z,89.2
2018-01-12T02:05:06.065Z,88.1
2018-01-12T02:06:06.852Z,89.3
2018-01-12T02:07:07.642Z,88.7
2018-01-12T02:08:08.387Z,93.1
2018-01-12T02:09:09.159Z,93.8
2018-01-12T02:10:09.961Z,104.0
2018-01-12T02:11:10.703Z,100.6
2018-01-12T02:12:11.481Z,99.8
2018-01-12T02:13:12.216Z,104.4
2018-01-12T02:14:13.051Z,104.2
2018-01-12T02:15:13.777Z,103.6
2018-01-12T02:16:14.571Z,104.9
2018-01-12T02:17:15.287Z,103.8
2018-01-12T02:18:16.016Z,101.4
2018-01-12T02:19:16.751Z,103.0
2018-01-12T02:20:17.482Z,102.8
2018-01-12T02:21:18.201Z,105.5
2018-01-12T02:22:18.933Z,103.1
2018-01-12T02:23:19.704Z,108.6
2018-01-12T02:24:20.430Z,107.2
2018-01-12T02:25:21.163Z,107.1
2018-01-12T02:26:21.979Z,104.0
2018-01-12T02:27:22.753Z,104.2
2018-01-12T02:28:23.491Z,101.3
2018-01-12T02:29:24.221Z,107.4
2018-01-12T02:30:24.959Z,110.6
2018-01-12T02:31:25.753Z,114.3
2018-01-12T02:32:26.540Z,106.6
2018-01-12T02:33:27.274Z,108.2
2018-01-12T02:34:28.041Z,111.5
2018-01-12T02:35:28.760Z,103.4
2018-01-12T02:36:29.503Z,102.2
2018-01-12T02:37:30.529Z,100.9
2018-01-12T02:38:31.248Z,99.7
2018-01-12T02:39:31.978Z,100.8
2018-01-12T02:40:32.710Z,98.7
2018-01-12T02:41:33.436Z,95.3
2018-01-12T02:42:34.259Z,105.1
2018-01-12T02:43:35.022Z,102.5
2018-01-12T02:44:35.787Z,99.1
2018-01-12T02:45:36.520Z,101.4
2018-01-12T02:46:37.256Z,99.9
2018-01-12T02:47:38.044Z,99.1
2018-01-12T02:48:38.848Z,103.3
2018-01-12T02:49:39.641Z,110.1
2018-01-12T02:50:40.358Z,108.7
2018-01-12T02:51:41.155Z,109.5
2018-01-12T02:52:41.962Z,106.1
2018-01-12T02:53:42.815Z,104.9
2018-01-12T02:54:43.520Z,104.0
2018-01-12T02:55:44.274Z,104.9
2018-01-12T02:56:44.976Z,102.3
2018-01-12T02:57:45.693Z,99.9
2018-01-12T02:58:46.800Z,99.3
2018-01-12T02:59:47.541Z,94.5
2018-01-12T03:00:48.336Z,96.0
2018-01-12T03:01:49.122Z,94.6
2018-01-12T03:02:49.920Z,94.3
2018-01-12T03:03:50.701Z,96.6
2018-01-12T03:04:51.432Z,94.6
2018-01-12T03:05:53.051Z,93.0
2018-01-12T03:06:53.721Z,93.5
2018-01-12T03:07:54.437Z,91.2
2018-01-12T03:08:55.197Z,91.0
2018-01-12T03:09:55.919Z,89.8
2018-01-12T03:10:56.736Z,92.2
2018-01-12T03:11:57.508Z,97.6
2018-01-12T03:12:58.274Z,96.5
2018-01-12T03:13:59.089Z,92.8
2018-01-12T03:14:59.868Z,93.5
2018-01-12T03:16:00.614Z,91.2
2018-01-12T03:17:01.431Z,96.7
2018-01-12T03:18:02.147Z,90.3
2018-01-12T03:19:02.867Z,92.9
2018-01-12T03:20:03.602Z,88.8
2018-01-12T03:21:04.415Z,93.3
2018-01-12T03:22:05.145Z,90.7
2018-01-12T03:23:05.952Z,91.0
2018-01-12T03:24:06.680Z,94.9
2018-01-12T03:25:07.497Z,93.4
2018-01-12T03:26:08.270Z,92.1
2018-01-12T03:27:09.010Z,100.0
2018-01-12T03:28:09.749Z,100.1
2018-01-12T03:29:10.531Z,98.2
2018-01-12T03:30:11.349Z,90.2
2018-01-12T03:31:12.122Z,91.4
2018-01-12T03:32:12.863Z,89.4
2018-01-12T03:33:13.567Z,92.8
2018-01-12T03:34:14.287Z,92.6
2018-01-12T03:35:15.026Z,93.1
2018-01-12T03:36:16.111Z,92.8
2018-01-12T03:37:16.841Z,96.6
2018-01-12T03:38:17.556Z,87.7
2018-01-12T03:39:18.276Z,91.3
2018-01-12T03:40:19.003Z,92.3
2018-01-12T03:41:19.818Z,92.2
2018-01-12T03:42:20.613Z,95.7
2018-01-12T03:43:21.335Z,95.2
2018-01-12T03:44:22.071Z,92.2
2018-01-12T03:45:22.806Z,91.0
2018-01-12T03:46:23.610Z,98.5
2018-01-12T03:47:24.344Z,100.2
2018-01-12T03:48:25.065Z,103.3
2018-01-12T03:49:25.800Z,108.5
2018-01-12T03:50:26.531Z,108.4
2018-01-12T03:51:27.258Z,106.4
2018-01-12T03:52:28.031Z,113.3
2018-01-12T03:53:28.841Z,117.2
2018-01-12T03:54:29.572Z,112.5
2018-01-12T03:55:30.303Z,116.9
2018-01-12T03:56:31.092Z,116.5
2018-01-12T03:57:31.833Z,123.0
2018-01-12T03:58:32.625Z,121.8
2018-01-12T03:59:33.342Z,118.1
2018-01-12T04:00:34.134Z,124.0
2018-01-12T04:01:34.859Z,126.7
2018-01-12T04:02:35.584Z,123.9
2018-01-12T04:03:36.420Z,136.2
2018-01-12T04:04:37.141Z,143.0
2018-01-12T04:05:37.874Z,122.7
2018-01-12T04:06:38.595Z,119.3
2018-01-12T04:07:39.326Z,127.2
2018-01-12T04:08:40.201Z,171.3
2018-01-12T04:09:40.972Z,162.7
2018-01-12T04:10:41.802Z,139.8
2018-01-12T04:11:42.522Z,149.3
2018-01-12T04:12:43.243Z,155.9
2018-01-12T04:13:44.018Z,127.6
2018-01-12T04:14:44.744Z,132.2
2018-01-12T04:15:45.480Z,127.8
2018-01-12T04:16:46.248Z,118.7
2018-01-12T04:17:46.976Z,127.5
2018-01-12T04:18:47.747Z,123.7
2018-01-12T04:19:48.563Z,137.1
2018-01-12T04:20:49.330Z,146.4
2018-01-12T04:21:50.077Z,130.2
2018-01-12T04:22:50.814Z,137.5
2018-01-12T04:23:51.555Z,134.3
2018-01-12T04:24:52.334Z,128.6
2018-01-12T04:25:53.055Z,118.9
2018-01-12T04:26:53.824Z,117.2
2018-01-12T04:27:54.563Z,122.0
2018-01-12T04:28:55.290Z,137.1
2018-01-12T04:29:56.085Z,118.2
2018-01-12T04:30:56.823Z,116.5
2018-01-12T04:31:57.547Z,110.0
2018-01-12T04:32:58.365Z,110.2
2018-01-12T04:33:59.174Z,123.9
2018-01-12T04:34:59.904Z,137.0
2018-01-12T04:36:00.630Z,135.9
2018-01-12T04:37:01.359Z,138.5
2018-01-12T04:38:02.086Z,143.5
2018-01-12T04:39:02.814Z,136.7
2018-01-12T04:40:03.581Z,114.0
2018-01-12T04:41:04.304Z,122.8
2018-01-12T04:42:05.045Z,113.5
2018-01-12T04:43:05.838Z,121.6
2018-01-12T04:44:06.610Z,120.6
2018-01-12T04:45:07.404Z,120.3
2018-01-12T04:46:08.173Z,129.3
2018-01-12T04:47:08.951Z,112.4
2018-01-12T04:48:09.736Z,114.0
2018-01-12T04:49:10.461Z,120.8
2018-01-12T04:50:11.221Z,134.6
2018-01-12T04:51:11.963Z,145.2
2018-01-12T04:52:12.743Z,129.7
2018-01-12T04:53:13.473Z,142.1
2018-01-12T04:54:14.199Z,149.5
2018-01-12T04:55:14.924Z,142.0
2018-01-12T04:56:15.652Z,144.9
2018-01-12T04:57:16.465Z,134.9
2018-01-12T04:58:17.214Z,134.4
2018-01-12T04:59:17.951Z,127.9
2018-01-12T05:00:18.683Z,133.1
2018-01-12T05:01:19.405Z,127.0
2018-01-12T05:02:20.138Z,131.5
2018-01-12T05:03:20.929Z,137.2
2018-01-12T05:04:21.665Z,133.9
2018-01-12T05:05:22.408Z,133.1
2018-01-12T05:06:23.203Z,142.8
2018-01-12T05:07:23.934Z,135.0
2018-01-12T05:08:24.659Z,138.3
2018-01-12T05:09:25.384Z,143.0
2018-01-12T05:10:26.185Z,138.4
2018-01-12T05:11:27.051Z,119.1
2018-01-12T05:12:27.763Z,137.2
2018-01-12T05:13:28.488Z,144.0
2018-01-12T05:14:29.293Z,137.4
2018-01-12T05:15:30.023Z,132.7
2018-01-12T05:16:30.752Z,137.3
2018-01-12T05:17:31.474Z,135.7
2018-01-12T05:18:32.250Z,130.5
2018-01-12T05:19:32.982Z,131.7
2018-01-12T05:20:33.713Z,137.7
2018-01-12T05:21:34.431Z,136.3
2018-01-12T05:22:35.243Z,135.9
2018-01-12T05:23:36.329Z,131.0
2018-01-12T05:24:37.136Z,126.0
2018-01-12T05:25:37.856Z,127.5
2018-01-12T05:26:38.589Z,127.4
2018-01-12T05:27:39.322Z,125.5
2018-01-12T05:28:40.091Z,123.4
2018-01-12T05:29:40.893Z,128.4
2018-01-12T05:30:41.624Z,123.5
2018-01-12T05:31:42.340Z,124.3
2018-01-12T05:32:43.065Z,122.2
2018-01-12T05:33:43.845Z,113.1
2018-01-12T05:34:44.574Z,100.9
2018-01-12T05:35:45.305Z,107.6
2018-01-12T05:36:46.084Z,103.6
2018-01-12T05:37:46.873Z,106.2
2018-01-12T05:38:47.671Z,110.4
2018-01-12T05:39:48.468Z,108.4
2018-01-12T05:40:49.202Z,112.4
2018-01-12T05:41:50.012Z,110.4
2018-01-12T05:42:50.804Z,110.0
2018-01-12T05:43:51.526Z,111.4
2018-01-12T05:44:52.260Z,112.2
2018-01-12T05:45:52.974Z,105.2
2018-01-12T05:46:53.758Z,103.5
2018-01-12T05:47:54.490Z,106.0
2018-01-12T05:48:55.226Z,105.5
2018-01-12T05:49:55.991Z,107.0
2018-01-12T05:50:56.699Z,102.8
2018-01-12T05:51:57.419Z,108.5
2018-01-12T05:52:58.145Z,105.6
2018-01-12T05:53:58.874Z,108.0
2018-01-12T05:54:59.603Z,111.5
2018-01-12T05:56:00.327Z,112.1
2018-01-12T05:57:01.117Z,114.6
2018-01-12T05:58:01.841Z,119.7
2018-01-12T05:59:02.651Z,113.6
2018-01-12T06:00:03.438Z,108.7
2018-01-12T06:01:04.155Z,114.8
2018-01-12T06:02:05.019Z,110.9
2018-01-12T06:03:05.743Z,117.3
2018-01-12T06:04:06.483Z,117.9
2018-01-12T06:05:07.243Z,122.6
2018-01-12T06:06:07.983Z,115.6
2018-01-12T06:07:08.714Z,112.4
2018-01-12T06:08:09.444Z,113.5
2018-01-12T06:09:10.223Z,117.2
2018-01-12T06:10:10.954Z,115.0
2018-01-12T06:11:11.676Z,115.3
2018-01-12T06:12:12.389Z,111.0
2018-01-12T06:13:13.169Z,112.7
2018-01-12T06:14:13.905Z,107.3
2018-01-12T06:15:14.704Z,111.3
2018-01-12T06:16:15.429Z,112.4
2018-01-12T06:17:16.567Z,115.1
2018-01-12T06:18:17.227Z,113.9
2018-01-12T06:19:17.994Z,112.3
2018-01-12T06:20:18.754Z,112.8
2018-01-12T06:21:19.557Z,109.9
2018-01-12T06:22:20.316Z,108.1
2018-01-12T06:23:21.034Z,111.2
2018-01-12T06:24:21.765Z,113.0
2018-01-12T06:25:22.505Z,104.4
2018-01-12T06:26:23.304Z,105.2
2018-01-12T06:27:24.093Z,103.7
2018-01-12T06:28:24.814Z,113.9
2018-01-12T06:29:25.532Z,113.7
2018-01-12T06:30:26.283Z,110.5
2018-01-12T06:31:27.025Z,114.0
2018-01-12T06:32:27.846Z,107.2
2018-01-12T06:33:28.624Z,112.2
2018-01-12T06:34:29.341Z,110.8
2018-01-12T06:35:30.130Z,105.4
2018-01-12T06:36:30.855Z,108.3
2018-01-12T06:37:31.671Z,106.6
2018-01-12T06:38:32.498Z,104.4
2018-01-12T06:39:33.193Z,110.1
2018-01-12T06:40:33.907Z,110.7
2018-01-12T06:41:34.683Z,110.7
2018-01-12T06:42:35.405Z,114.1
2018-01-12T06:43:36.199Z,107.1
2018-01-12T06:44:36.934Z,107.3
2018-01-12T06:45:37.724Z,101.0
2018-01-12T06:46:38.540Z,100.0
2018-01-12T06:47:39.257Z,102.0
2018-01-12T06:48:40.035Z,101.7
2018-01-12T06:49:40.835Z,102.0
2018-01-12T06:50:41.583Z,105.9
2018-01-12T06:51:42.415Z,110.4
2018-01-12T06:52:43.158Z,107.3
2018-01-12T06:53:43.953Z,109.8
2018-01-12T06:54:44.680Z,105.8
2018-01-12T06:55:45.503Z,104.9
2018-01-12T06:56:46.236Z,111.3
2018-01-12T06:57:46.969Z,108.8
2018-01-12T06:58:48.062Z,104.4
2018-01-12T06:59:48.861Z,103.4
2018-01-12T07:00:49.588Z,104.1
2018-01-12T07:01:50.310Z,108.2
2018-01-12T07:02:51.091Z,112.7
2018-01-12T07:03:52.211Z,113.8
2018-01-12T07:04:52.951Z,111.0
2018-01-12T07:05:53.762Z,104.2
2018-01-12T07:06:54.492Z,106.6
2018-01-12T07:07:55.234Z,105.0
2018-01-12T07:08:56.063Z,104.3
2018-01-12T07:09:56.879Z,104.4
2018-01-12T07:10:57.680Z,102.6
2018-01-12T07:11:58.412Z,100.2
2018-01-12T07:12:59.138Z,98.3
2018-01-12T07:14:00.211Z,96.3
2018-01-12T07:15:00.890Z,96.2
2018-01-12T07:16:01.613Z,95.3
2018-01-12T07:17:02.403Z,98.2
2018-01-12T07:18:03.119Z,104.0
2018-01-12T07:19:04.162Z,96.3
2018-01-12T07:20:05.003Z,89.2
2018-01-12T07:21:05.695Z,92.8
2018-01-12T07:22:06.494Z,95.8
2018-01-12T07:23:07.368Z,99.9
2018-01-12T07:24:08.181Z,95.7
2018-01-12T07:25:08.972Z,94.1
2018-01-12T07:26:09.708Z,90.8
2018-01-12T07:27:10.432Z,90.3
2018-01-12T07:28:11.148Z,88.5
2018-01-12T07:29:11.879Z,90.1
2018-01-12T07:30:12.616Z,89.2
2018-01-12T07:31:13.394Z,89.3
2018-01-12T07:32:14.115Z,93.5
2018-01-12T07:33:14.839Z,95.9
2018-01-12T07:34:15.630Z,97.7
2018-01-12T07:35:16.353Z,97.2
2018-01-12T07:36:17.082Z,100.0
2018-01-12T07:37:17.809Z,99.0
2018-01-12T07:38:18.539Z,96.3
2018-01-12T07:39:19.298Z,89.9
2018-01-12T07:40:20.000Z,80.4
2018-01-12T07:41:20.733Z,90.9
2018-01-12T07:42:21.450Z,95.8
2018-01-12T07:43:22.195Z,100.0
2018-01-12T07:44:22.936Z,89.2
2018-01-12T07:45:24.137Z,101.0
2018-01-12T07:46:24.982Z,90.6
2018-01-12T07:47:27.270Z,90.5
2018-01-12T07:48:28.190Z,101.1
2018-01-12T07:49:28.959Z,80.8
2018-01-12T07:50:30.074Z,94.4
2018-01-12T07:51:30.844Z,85.8
2018-01-12T07:52:31.566Z,85.2
2018-01-12T07:53:32.302Z,86.0
2018-01-12T07:54:33.024Z,103.4
2018-01-12T07:55:33.751Z,120.6
2018-01-12T07:56:34.549Z,91.8
2018-01-12T07:57:35.584Z,91.3
2018-01-12T07:58:36.300Z,105.0
2018-01-12T07:59:37.027Z,95.1
2018-01-12T08:00:37.810Z,95.3
2018-01-12T08:01:38.553Z,100.0
2018-01-12T08:02:39.324Z,106.3
2018-01-12T08:03:40.048Z,116.6
2018-01-12T08:04:40.877Z,107.9
2018-01-12T08:05:41.647Z,111.9
2018-01-12T08:06:42.377Z,102.8
2018-01-12T08:07:43.121Z,101.2
2018-01-12T08:08:43.849Z,91.4
2018-01-12T08:09:44.570Z,100.3
2018-01-12T08:10:45.390Z,98.7
2018-01-12T08:11:46.169Z,109.0
2018-01-12T08:12:47.206Z,100.1
2018-01-12T08:13:47.942Z,90.2
2018-01-12T08:14:48.729Z,99.7
2018-01-12T08:15:49.472Z,110.0
2018-01-12T08:16:50.193Z,101.3
2018-01-12T08:17:51.227Z,104.7
2018-01-12T08:18:51.950Z,98.7
2018-01-12T08:19:52.682Z,90.3
2018-01-12T08:20:53.632Z,94.3
2018-01-12T08:21:54.358Z,98.9
2018-01-12T08:22:55.503Z,105.8
2018-01-12T08:23:56.312Z,102.8
2018-01-12T08:24:57.031Z,109.5
2018-01-12T08:25:57.757Z,93.1
2018-01-12T08:26:58.543Z,117.4
2018-01-12T08:27:59.324Z,116.5
2018-01-12T08:29:00.070Z,104.2
2018-01-12T08:30:00.789Z,106.1
2018-01-12T08:31:01.518Z,112.4
2018-01-12T08:32:02.239Z,100.8
2018-01-12T08:33:02.972Z,117.0
2018-01-12T08:34:03.743Z,99.8
2018-01-12T08:35:04.481Z,108.5
2018-01-12T08:36:05.152Z,97.6
2018-01-12T08:37:05.934Z,95.6
2018-01-12T08:38:06.666Z,105.8
2018-01-12T08:39:07.522Z,107.7
2018-01-12T08:40:08.311Z,109.1
2018-01-12T08:41:09.095Z,102.8
2018-01-12T08:42:09.888Z,115.9
2018-01-12T08:43:10.671Z,108.9
2018-01-12T08:44:11.422Z,101.5
2018-01-12T08:45:12.148Z,94.6
2018-01-12T08:46:12.882Z,92.2
2018-01-12T08:47:13.615Z,93.9
2018-01-12T08:48:14.433Z,95.3
2018-01-12T08:49:15.164Z,79.9
2018-01-12T08:50:16.273Z,102.7
2018-01-12T08:51:17.004Z,99.7
2018-01-12T08:52:17.738Z,83.8
2018-01-12T08:53:18.562Z,84.2
2018-01-12T08:54:19.342Z,94.9
2018-01-12T08:55:20.074Z,108.5
2018-01-12T08:56:20.894Z,106.9
2018-01-12T08:57:21.622Z,103.8
2018-01-12T08:58:22.348Z,96.3
2018-01-12T08:59:23.069Z,100.3
2018-01-12T09:00:23.804Z,94.1
2018-01-12T09:01:24.579Z,84.6
2018-01-12T09:02:25.313Z,95.6
2018-01-12T09:03:26.050Z,84.3
2018-01-12T09:04:26.783Z,88.0
2018-01-12T09:05:27.513Z,86.8
2018-01-12T09:06:28.319Z,92.8
2018-01-12T09:07:29.422Z,88.9
2018-01-12T09:08:30.149Z,93.8
2018-01-12T09:09:30.884Z,89.1
2018-01-12T09:10:31.621Z,88.0
2018-01-12T09:11:32.342Z,85.7
2018-01-12T09:12:33.373Z,80.1
2018-01-12T09:13:34.102Z,81.2
2018-01-12T09:14:34.831Z,88.4
2018-01-12T09:15:35.563Z,89.6
2018-01-12T09:16:36.296Z,85.8
2018-01-12T09:17:37.079Z,86.4
2018-01-12T09:18:37.809Z,78.5
2018-01-12T09:19:38.545Z,80.8
2018-01-12T09:20:39.289Z,84.8
2018-01-12T09:21:40.019Z,82.6
2018-01-12T09:22:40.750Z,79.2
2018-01-12T09:23:41.511Z,83.6
2018-01-12T09:24:42.235Z,85.0
2018-01-12T09:25:42.968Z,84.7
2018-01-12T09:26:43.707Z,85.5
2018-01-12T09:27:44.435Z,83.7
2018-01-12T09:28:45.524Z,84.9
2018-01-12T09:29:46.307Z,80.9
2018-01-12T09:30:47.134Z,80.5
2018-01-12T09:31:47.860Z,77.3
2018-01-12T09:32:48.599Z,81.4
2018-01-12T09:33:49.375Z,79.9
2018-01-12T09:34:50.092Z,82.5
2018-01-12T09:35:50.898Z,78.6
2018-01-12T09:36:51.621Z,81.9
2018-01-12T09:37:52.440Z,83.3
2018-01-12T09:38:53.227Z,83.2
2018-01-12T09:39:54.036Z,77.9
2018-01-12T09:40:54.806Z,78.8
2018-01-12T09:41:55.526Z,83.2
2018-01-12T09:42:56.247Z,77.0
2018-01-12T09:43:56.975Z,75.7
2018-01-12T09:44:58.075Z,81.1
2018-01-12T09:45:58.802Z,80.0
2018-01-12T09:46:59.520Z,79.3
2018-01-12T09:48:00.334Z,80.5
2018-01-12T09:49:01.056Z,83.8
2018-01-12T09:50:01.793Z,73.3
2018-01-12T09:51:02.534Z,79.0
2018-01-12T09:52:03.268Z,83.3
2018-01-12T09:53:03.995Z,81.8
2018-01-12T09:54:04.728Z,79.5
2018-01-12T09:55:05.535Z,87.3
2018-01-12T09:56:06.312Z,90.1
2018-01-12T09:57:07.041Z,83.8
2018-01-12T09:58:07.820Z,83.4
2018-01-12T09:59:08.676Z,83.3
2018-01-12T10:00:09.392Z,88.7
2018-01-12T10:01:10.221Z,85.1
2018-01-12T10:02:10.927Z,84.5
2018-01-12T10:03:11.655Z,90.3
2018-01-12T10:04:12.389Z,84.0
2018-01-12T10:05:13.184Z,83.8
2018-01-12T10:06:14.024Z,88.7
2018-01-12T10:07:14.749Z,83.5
2018-01-12T10:08:15.478Z,80.1
2018-01-12T10:09:16.212Z,70.6
2018-01-12T10:10:16.940Z,68.2
2018-01-12T10:11:17.754Z,69.1
2018-01-12T10:12:18.558Z,67.7
2018-01-12T10:13:19.293Z,69.6
2018-01-12T10:14:20.022Z,66.8
2018-01-12T10:15:20.757Z,66.9
2018-01-12T10:16:21.495Z,67.6
2018-01-12T10:17:22.347Z,71.8
2018-01-12T10:18:23.148Z,67.0
2018-01-12T10:19:23.877Z,67.9
2018-01-12T10:20:24.623Z,65.1
2018-01-12T10:21:25.359Z,66.7
2018-01-12T10:22:26.114Z,61.5
2018-01-12T10:23:26.922Z,65.9
2018-01-12T10:24:27.655Z,66.9
2018-01-12T10:25:28.393Z,64.5
2018-01-12T10:26:29.124Z,67.3
2018-01-12T10:27:29.939Z,67.1
2018-01-12T10:28:30.975Z,66.9
2018-01-12T10:29:31.732Z,64.8
2018-01-12T10:30:32.433Z,64.3
2018-01-12T10:31:33.174Z,63.6
2018-01-12T10:32:33.926Z,70.5
2018-01-12T10:33:34.662Z,65.5
2018-01-12T10:34:35.389Z,63.8
2018-01-12T10:35:36.181Z,67.6
2018-01-12T10:36:36.939Z,58.8
2018-01-12T10:37:37.743Z,58.9
2018-01-12T10:38:38.520Z,60.1
2018-01-12T10:39:39.276Z,65.6
2018-01-12T10:40:40.121Z,67.4
2018-01-12T10:41:40.869Z,61.3
2018-01-12T10:42:41.584Z,66.1
2018-01-12T10:43:42.357Z,66.0
2018-01-12T10:44:43.101Z,63.4
2018-01-12T10:45:43.884Z,64.3
2018-01-12T10:46:44.608Z,63.9
2018-01-12T10:47:45.390Z,66.3
2018-01-12T10:48:46.196Z,66.1
2018-01-12T10:49:46.926Z,64.9
2018-01-12T10:50:47.725Z,69.1
2018-01-12T10:51:48.466Z,69.1
2018-01-12T10:52:49.202Z,69.9
2018-01-12T10:53:49.938Z,74.6
2018-01-12T10:54:50.658Z,70.1
2018-01-12T10:55:51.384Z,68.0
2018-01-12T10:56:52.167Z,70.1
2018-01-12T10:57:52.954Z,72.3
2018-01-12T10:58:53.756Z,67.5
2018-01-12T10:59:55.442Z,69.4
2018-01-12T11:00:56.498Z,68.7
2018-01-12T11:01:57.916Z,70.5
2018-01-12T11:02:58.600Z,74.8
2018-01-12T11:03:59.332Z,75.6
2018-01-12T11:05:00.078Z,69.9
2018-01-12T11:06:00.886Z,71.1
2018-01-12T11:07:03.223Z,66.9
2018-01-12T11:08:04.160Z,65.3
2018-01-12T11:09:05.010Z,67.8
2018-01-12T11:10:05.741Z,66.1
2018-01-12T11:11:06.452Z,68.9
2018-01-12T11:12:07.182Z,64.7
2018-01-12T11:13:07.906Z,61.4
2018-01-12T11:14:08.634Z,63.9
2018-01-12T11:15:09.425Z,59.4
2018-01-12T11:16:10.246Z,65.2
2018-01-12T11:17:10.975Z,71.1
2018-01-12T11:18:11.820Z,76.1
2018-01-12T11:19:12.561Z,68.3
2018-01-12T11:20:13.372Z,72.7
2018-01-12T11:21:14.101Z,79.5
2018-01-12T11:22:14.924Z,74.3
2018-01-12T11:23:15.742Z,78.7
2018-01-12T11:24:16.523Z,80.7
2018-01-12T11:25:17.408Z,81.4
2018-01-12T11:26:18.240Z,73.3
2018-01-12T11:27:19.050Z,77.8
2018-01-12T11:28:19.861Z,79.3
2018-01-12T11:29:20.588Z,74.2
2018-01-12T11:30:21.311Z,76.0
2018-01-12T11:31:22.123Z,69.0
2018-01-12T11:32:22.902Z,67.5
2018-01-12T11:33:23.683Z,69.4
2018-01-12T11:34:24.420Z,73.0
2018-01-12T11:35:25.218Z,71.7
2018-01-12T11:36:25.943Z,73.7
2018-01-12T11:37:26.738Z,69.6
2018-01-12T11:38:27.858Z,70.0
2018-01-12T11:39:28.658Z,68.5
2018-01-12T11:40:29.379Z,72.4
2018-01-12T11:41:30.113Z,67.8
2018-01-12T11:42:30.859Z,67.2
2018-01-12T11:43:31.634Z,66.8
2018-01-12T11:44:32.344Z,72.3
2018-01-12T11:45:33.076Z,68.6
2018-01-12T11:46:33.851Z,67.1
2018-01-12T11:47:34.652Z,69.5
2018-01-12T11:48:35.381Z,66.9
2018-01-12T11:49:36.184Z,71.1
2018-01-12T11:50:36.994Z,78.7
2018-01-12T11:51:37.750Z,72.1
2018-01-12T11:52:38.492Z,70.4
2018-01-12T11:53:39.238Z,70.5
2018-01-12T11:54:40.032Z,76.0
2018-01-12T11:55:40.781Z,70.2
2018-01-12T11:56:41.563Z,70.2
2018-01-12T11:57:42.294Z,68.1
2018-01-12T11:58:43.034Z,72.2
2018-01-12T11:59:43.830Z,64.1
2018-01-12T12:00:44.550Z,68.0
2018-01-12T12:01:45.334Z,69.3
2018-01-12T12:02:46.129Z,69.6
2018-01-12T12:03:46.873Z,68.1
2018-01-12T12:04:47.619Z,65.6
2018-01-12T12:05:48.426Z,68.7
2018-01-12T12:06:49.153Z,67.4
2018-01-12T12:07:49.953Z,68.1
2018-01-12T12:08:50.687Z,70.6
2018-01-12T12:09:51.423Z,67.8
2018-01-12T12:10:52.163Z,65.9
2018-01-12T12:11:52.892Z,67.4
2018-01-12T12:12:53.664Z,63.8
2018-01-12T12:13:54.412Z,63.8
2018-01-12T12:14:55.189Z,62.7
2018-01-12T12:15:56.002Z,63.3
2018-01-12T12:16:56.734Z,63.8
2018-01-12T12:17:57.566Z,63.2
2018-01-12T12:18:58.238Z,65.3
2018-01-12T12:19:59.053Z,62.5
2018-01-12T12:20:59.831Z,62.7
2018-01-12T12:22:00.560Z,63.1
2018-01-12T12:23:01.383Z,61.6
2018-01-12T12:24:02.114Z,62.1
2018-01-12T12:25:02.912Z,64.2
2018-01-12T12:26:03.646Z,64.0
2018-01-12T12:27:04.374Z,62.5
2018-01-12T12:28:05.187Z,63.5
2018-01-12T12:29:05.913Z,63.8
2018-01-12T12:30:06.648Z,61.3
2018-01-12T12:31:07.435Z,61.6
2018-01-12T12:32:08.232Z,61.7
2018-01-12T12:33:08.967Z,61.7
2018-01-12T12:34:09.760Z,64.1
2018-01-12T12:35:10.495Z,66.2
2018-01-12T12:36:11.221Z,63.3
2018-01-12T12:37:11.950Z,62.5
2018-01-12T12:38:12.768Z,64.2
2018-01-12T12:39:13.549Z,61.7
2018-01-12T12:40:14.271Z,62.9
2018-01-12T12:41:14.999Z,63.2
2018-01-12T12:42:15.803Z,62.7
2018-01-12T12:43:16.534Z,63.3
2018-01-12T12:44:17.323Z,64.2
2018-01-12T12:45:18.128Z,63.0
2018-01-12T12:46:18.867Z,66.0
2018-01-12T12:47:19.610Z,64.7
2018-01-12T12:48:20.409Z,62.9
2018-01-12T12:49:21.137Z,64.9
2018-01-12T12:50:21.909Z,65.2
2018-01-12T12:51:22.643Z,64.7
2018-01-12T12:52:23.371Z,63.9
2018-01-12T12:53:24.103Z,63.9
2018-01-12T12:54:24.921Z,65.1
2018-01-12T12:55:25.698Z,64.9
2018-01-12T12:56:26.427Z,61.7
2018-01-12T12:57:27.188Z,62.4
2018-01-12T12:58:27.920Z,66.1
2018-01-12T12:59:28.689Z,63.6
2018-01-12T13:00:29.441Z,64.6
2018-01-12T13:01:30.169Z,65.1
2018-01-12T13:02:30.964Z,65.0
2018-01-12T13:03:31.684Z,62.6
2018-01-12T13:04:32.414Z,63.6
2018-01-12T13:05:33.141Z,67.6
2018-01-12T13:06:33.885Z,64.9
2018-01-12T13:07:34.709Z,65.2
2018-01-12T13:08:35.434Z,63.3
2018-01-12T13:09:36.171Z,69.3
2018-01-12T13:10:36.927Z,64.9
2018-01-12T13:11:37.657Z,66.9
2018-01-12T13:12:38.447Z,64.5
2018-01-12T13:13:39.179Z,67.4
2018-01-12T13:14:39.909Z,67.5
2018-01-12T13:15:40.738Z,71.0
2018-01-12T13:16:41.519Z,72.2
2018-01-12T13:17:42.334Z,67.0
2018-01-12T13:18:43.072Z,68.3
2018-01-12T13:19:43.872Z,69.7